Time;durP1;ratioP1;P1;durP2;ratioP2;P2;SDS_P1;SDS_P2;PMS_P1;PMS_P2;Temp;Humidity;BMP_temperature;BMP_pressure;BME280_temperature;BME280_humidity;BME280_pressure;Samples;Min_cycle;Max_cycle;Signal;HPM_P1;HPM_P2
2020/12/29 00:01:53;;;;;;;25.88;10.10;;;;;;;8.77;100.00;100579.03;1829463;78;21043;-53
2020/12/29 00:04:22;;;;;;;26.95;9.40;;;;;;;8.80;100.00;100562.90;1829426;78;21038;-54
2020/12/29 00:06:54;;;;;;;30.20;10.93;;;;;;;8.83;100.00;100565.47;1829460;78;22727;-53
2020/12/29 00:09:24;;;;;;;29.92;9.63;;;;;;;8.85;100.00;100568.97;1829430;78;21062;-54
2020/12/29 00:11:53;;;;;;;20.10;9.23;;;;;;;8.87;100.00;100563.11;1829468;78;21061;-53
2020/12/29 00:14:20;;;;;;;23.62;9.28;;;;;;;8.88;100.00;100572.88;1829381;78;20921;-54
2020/12/29 00:16:48;;;;;;;33.80;9.58;;;;;;;8.91;100.00;100571.92;1829422;78;21138;-53
2020/12/29 00:19:22;;;;;;;32.03;9.43;;;;;;;8.92;100.00;100564.31;1829361;78;21352;-54
2020/12/29 00:21:50;;;;;;;30.05;8.40;;;;;;;8.93;100.00;100565.17;1829016;78;21162;-54
2020/12/29 00:24:17;;;;;;;23.12;8.50;;;;;;;8.93;100.00;100565.17;1829378;78;21154;-54
2020/12/29 00:26:47;;;;;;;23.55;7.95;;;;;;;8.94;100.00;100554.89;1826537;78;21177;-52
2020/12/29 00:29:14;;;;;;;27.82;8.23;;;;;;;8.96;100.00;100542.37;1829407;78;21044;-53
2020/12/29 00:31:42;;;;;;;28.73;8.78;;;;;;;8.99;100.00;100543.61;1829495;78;21480;-53
2020/12/29 00:34:10;;;;;;;31.12;9.20;;;;;;;9.02;100.00;100538.16;1829372;78;20996;-53
2020/12/29 00:36:39;;;;;;;21.85;7.58;;;;;;;9.01;100.00;100539.09;1829362;78;21142;-54
2020/12/29 00:39:07;;;;;;;22.85;8.70;;;;;;;9.04;100.00;100536.31;1829342;78;21127;-54
2020/12/29 00:41:36;;;;;;;25.90;8.10;;;;;;;9.07;100.00;100536.20;1829341;78;21201;-54
2020/12/29 00:44:04;;;;;;;23.67;9.70;;;;;;;9.09;100.00;100529.48;1829385;78;21695;-54
2020/12/29 00:46:32;;;;;;;28.98;8.20;;;;;;;9.10;100.00;100540.12;1830128;78;21137;-53
2020/12/29 00:49:00;;;;;;;27.20;8.10;;;;;;;9.11;100.00;100537.00;1834932;78;21000;-54
2020/12/29 00:51:27;;;;;;;26.35;8.18;;;;;;;9.14;100.00;100539.56;1834934;78;20996;-54
2020/12/29 00:53:57;;;;;;;24.00;7.83;;;;;;;9.14;100.00;100523.04;1834668;78;21142;-53
2020/12/29 00:56:25;;;;;;;25.00;8.50;;;;;;;9.13;100.00;100517.28;1834869;78;21497;-54
2020/12/29 00:58:55;;;;;;;18.67;7.55;;;;;;;9.14;100.00;100516.35;1834878;78;20933;-54
2020/12/29 01:01:23;;;;;;;19.65;7.67;;;;;;;9.15;100.00;100520.77;1834876;78;20944;-53
2020/12/29 01:04:10;;;;;;;28.38;7.65;;;;;;;9.14;100.00;100513.67;1834906;78;21079;-54
2020/12/29 01:06:40;;;;;;;23.70;7.62;;;;;;;9.14;100.00;100507.47;1834874;78;21173;-54
2020/12/29 01:09:09;;;;;;;23.02;8.38;;;;;;;9.11;100.00;100511.59;1834409;78;21918;-55
2020/12/29 01:11:38;;;;;;;30.30;8.05;;;;;;;9.11;100.00;100508.44;1834815;78;21004;-54
2020/12/29 01:14:06;;;;;;;29.50;8.10;;;;;;;9.08;100.00;100505.86;1834900;78;21139;-53
2020/12/29 01:16:36;;;;;;;23.07;7.42;;;;;;;9.07;100.00;100506.79;1834159;78;21047;-53
2020/12/29 01:19:04;;;;;;;27.48;7.70;;;;;;;9.04;100.00;100505.55;1834998;78;21078;-54
2020/12/29 01:21:31;;;;;;;23.00;7.65;;;;;;;9.04;100.00;100506.89;1834915;78;21668;-53
2020/12/29 01:23:59;;;;;;;26.85;9.10;;;;;;;9.04;100.00;100504.22;1834875;78;21106;-53
2020/12/29 01:26:26;;;;;;;26.65;7.95;;;;;;;9.03;100.00;100500.66;1834917;78;21036;-53
2020/12/29 01:28:54;;;;;;;24.65;8.23;;;;;;;9.02;100.00;100504.73;1834903;78;21047;-54
2020/12/29 01:31:28;;;;;;;24.50;7.95;;;;;;;9.05;100.00;100509.98;1834835;78;21075;-54
2020/12/29 01:33:57;;;;;;;22.77;7.65;;;;;;;9.05;100.00;100509.98;1834973;78;21134;-55
2020/12/29 01:36:25;;;;;;;27.73;7.80;;;;;;;9.04;100.00;100500.21;1834831;78;21075;-53
2020/12/29 01:38:53;;;;;;;26.15;7.30;;;;;;;9.01;100.00;100489.62;1834886;78;21046;-54
2020/12/29 01:41:21;;;;;;;32.40;10.58;;;;;;;8.99;100.00;100501.69;1842218;75;21185;-55
2020/12/29 01:43:49;;;;;;;19.32;7.45;;;;;;;8.94;100.00;100484.03;1828847;78;21360;-54
2020/12/29 01:46:16;;;;;;;29.60;7.80;;;;;;;8.93;100.00;100480.50;1862455;77;21348;-54
2020/12/29 01:48:43;;;;;;;25.57;8.35;;;;;;;8.91;100.00;100476.12;1825087;78;21581;-54
2020/12/29 01:51:12;;;;;;;28.75;7.83;;;;;;;8.87;100.00;100466.87;1825011;78;21106;-54
2020/12/29 01:53:41;;;;;;;17.40;6.97;;;;;;;8.85;100.00;100470.05;1824851;78;21148;-54
2020/12/29 01:56:09;;;;;;;23.22;7.62;;;;;;;8.82;100.00;100459.47;1824961;78;20998;-54
2020/12/29 01:58:39;;;;;;;21.02;7.42;;;;;;;8.79;100.00;100458.68;1824548;78;21389;-53
2020/12/29 02:01:06;;;;;;;24.47;8.45;;;;;;;8.78;100.00;100454.26;1824888;78;21149;-53
2020/12/29 02:03:34;;;;;;;29.12;8.48;;;;;;;8.75;100.00;100456.59;1824948;78;21046;-54
2020/12/29 02:06:01;;;;;;;26.05;8.13;;;;;;;8.73;100.00;100449.05;1757458;78;21055;-54
2020/12/29 02:08:29;;;;;;;25.12;7.72;;;;;;;8.71;100.00;100451.79;1824906;78;21129;-53
2020/12/29 02:10:57;;;;;;;26.90;8.13;;;;;;;8.68;100.00;100463.03;1824891;78;21371;-54
2020/12/29 02:13:24;;;;;;;30.02;8.85;;;;;;;8.67;100.00;100457.27;1769688;78;21486;-54
2020/12/29 02:15:52;;;;;;;30.90;8.53;;;;;;;8.65;100.00;100457.34;1824892;78;21058;-53
2020/12/29 02:18:20;;;;;;;24.45;7.83;;;;;;;8.62;100.00;100449.42;1824946;78;21125;-54
2020/12/29 02:20:47;;;;;;;30.12;8.05;;;;;;;8.60;100.00;100444.11;1824867;78;21085;-53
2020/12/29 02:23:15;;;;;;;34.65;8.20;;;;;;;8.57;100.00;100450.90;1824970;78;21353;-54
2020/12/29 02:25:42;;;;;;;25.55;7.87;;;;;;;8.54;100.00;100448.33;1824884;78;21080;-53
2020/12/29 02:28:10;;;;;;;25.50;7.85;;;;;;;8.51;100.00;100451.10;1824916;78;21113;-54
2020/12/29 02:30:38;;;;;;;22.32;7.22;;;;;;;8.49;100.00;100442.20;1824922;78;21138;-53
2020/12/29 02:33:07;;;;;;;25.57;7.35;;;;;;;8.49;100.00;100433.32;1824937;78;21153;-54
2020/12/29 02:35:34;;;;;;;24.23;6.80;;;;;;;8.48;100.00;100443.59;1824937;78;21558;-53
2020/12/29 02:38:02;;;;;;;26.68;7.72;;;;;;;8.49;100.00;100438.19;1784572;78;21063;-53
2020/12/29 02:40:30;;;;;;;24.82;7.28;;;;;;;8.49;100.00;100436.84;1789235;80;22313;-54
2020/12/29 02:42:58;;;;;;;18.30;7.20;;;;;;;8.49;100.00;100434.18;1773982;80;21233;-54
2020/12/29 02:45:25;;;;;;;21.95;7.20;;;;;;;8.49;100.00;100432.84;1773963;80;21162;-53
2020/12/29 02:47:53;;;;;;;25.25;8.25;;;;;;;8.48;100.00;100441.78;1775068;80;21672;-53
2020/12/29 02:50:21;;;;;;;22.98;7.22;;;;;;;8.48;100.00;100435.58;1776861;80;21118;-53
2020/12/29 02:52:48;;;;;;;24.75;7.53;;;;;;;8.48;100.00;100428.91;1776921;80;21000;-54
2020/12/29 02:55:17;;;;;;;22.45;7.35;;;;;;;8.49;100.00;100429.31;1776830;80;21150;-53
2020/12/29 02:57:45;;;;;;;23.80;6.83;;;;;;;8.47;100.00;100420.00;1776941;80;21049;-54
2020/12/29 03:00:12;;;;;;;19.60;6.37;;;;;;;8.47;100.00;100422.67;1776863;80;21770;-52
2020/12/29 03:02:40;;;;;;;23.47;6.67;;;;;;;8.45;100.00;100416.50;1776843;80;21141;-53
2020/12/29 03:05:08;;;;;;;23.70;6.95;;;;;;;8.45;100.00;100421.40;1776971;80;21113;-53
2020/12/29 03:07:36;;;;;;;25.37;7.17;;;;;;;8.44;100.00;100425.44;1776859;80;21174;-54
2020/12/29 03:10:10;;;;;;;20.55;6.10;;;;;;;8.42;100.00;100417.49;1776897;80;21066;-54
2020/12/29 03:12:39;;;;;;;18.15;6.60;;;;;;;8.40;100.00;100418.45;1777148;80;22306;-54
2020/12/29 03:15:07;;;;;;;18.37;6.50;;;;;;;8.37;100.00;100413.20;1776871;80;21133;-54
2020/12/29 03:17:35;;;;;;;20.15;6.33;;;;;;;8.34;100.00;100411.98;1777056;80;21063;-54
2020/12/29 03:20:05;;;;;;;16.82;6.17;;;;;;;8.31;100.00;100407.59;1777025;80;22368;-54
2020/12/29 03:22:33;;;;;;;26.17;6.28;;;;;;;8.28;100.00;100412.55;1776704;80;21162;-54
2020/12/29 03:25:00;;;;;;;24.30;6.40;;;;;;;8.26;100.00;100410.88;1776864;80;21350;-54
2020/12/29 03:27:28;;;;;;;23.47;6.25;;;;;;;8.22;100.00;100418.09;1776819;80;21142;-54
2020/12/29 03:29:56;;;;;;;19.47;6.50;;;;;;;8.18;100.00;100411.10;1776807;80;21086;-54
2020/12/29 03:32:23;;;;;;;24.90;6.95;;;;;;;8.16;100.00;100407.61;1776919;80;21099;-54
2020/12/29 03:34:51;;;;;;;20.88;6.33;;;;;;;8.17;100.00;100404.02;1777034;80;21075;-53
2020/12/29 03:37:19;;;;;;;26.17;6.35;;;;;;;8.17;100.00;100396.00;1768780;80;21316;-54
2020/12/29 03:39:47;;;;;;;18.62;6.08;;;;;;;8.17;100.00;100396.00;1795330;80;21134;-54
2020/12/29 03:42:15;;;;;;;20.08;5.80;;;;;;;8.17;100.00;100396.00;1795389;80;20939;-54
2020/12/29 03:44:44;;;;;;;19.37;6.45;;;;;;;8.19;100.00;100399.49;1795291;80;21083;-53
2020/12/29 03:47:11;;;;;;;18.82;5.75;;;;;;;8.21;100.00;100399.46;1795053;80;21063;-54
2020/12/29 03:49:39;;;;;;;20.55;5.87;;;;;;;8.21;100.00;100399.46;1793088;80;21367;-54
2020/12/29 03:52:06;;;;;;;26.62;6.42;;;;;;;8.19;100.00;100398.16;1793054;80;21020;-55
2020/12/29 03:54:34;;;;;;;18.73;5.58;;;;;;;8.18;100.00;100400.42;1793006;79;20945;-54
2020/12/29 03:57:01;;;;;;;24.77;5.72;;;;;;;8.16;100.00;100401.79;1793133;80;21044;-53
2020/12/29 03:59:29;;;;;;;23.30;6.00;;;;;;;8.17;100.00;100412.02;1793098;80;21143;-53
2020/12/29 04:01:57;;;;;;;19.70;5.80;;;;;;;8.20;100.00;100417.27;1793124;80;21355;-53
2020/12/29 04:04:24;;;;;;;23.87;5.67;;;;;;;8.23;100.00;100417.17;1793020;80;21083;-54
2020/12/29 04:06:52;;;;;;;24.30;5.67;;;;;;;8.24;100.00;100412.23;1793130;79;21071;-54
2020/12/29 04:09:30;;;;;;;24.15;4.85;;;;;;;8.24;100.00;100414.91;1793126;80;21118;-53
2020/12/29 04:11:57;;;;;;;22.52;6.78;;;;;;;8.22;100.00;100420.77;1793120;80;21115;-54
2020/12/29 04:14:25;;;;;;;18.65;5.35;;;;;;;8.20;100.00;100421.27;1793096;79;21377;-54
2020/12/29 04:16:55;;;;;;;21.07;5.87;;;;;;;8.15;100.00;100425.89;1793095;80;21101;-54
2020/12/29 04:19:22;;;;;;;19.67;5.42;;;;;;;8.16;100.00;100431.64;1793113;80;21051;-54
2020/12/29 04:21:50;;;;;;;24.60;6.08;;;;;;;8.16;100.00;100431.64;1793042;80;21119;-54
2020/12/29 04:24:17;;;;;;;27.82;6.37;;;;;;;8.17;100.00;100427.56;1793144;80;21111;-55
2020/12/29 04:26:45;;;;;;;25.50;5.90;;;;;;;8.20;100.00;100434.63;1793071;80;21498;-54
2020/12/29 04:29:12;;;;;;;20.32;6.10;;;;;;;8.24;100.00;100433.60;1796669;79;21074;-54
2020/12/29 04:31:40;;;;;;;25.35;5.47;;;;;;;8.27;100.00;100422.83;1825649;78;21141;-53
2020/12/29 04:34:08;;;;;;;27.35;6.00;;;;;;;8.30;100.00;100428.10;1825585;78;21150;-53
2020/12/29 04:36:36;;;;;;;22.35;5.90;;;;;;;8.31;100.00;100421.83;1819171;78;21551;-53
2020/12/29 04:39:03;;;;;;;30.72;5.90;;;;;;;8.31;100.00;100427.17;1793118;80;21363;-54
2020/12/29 04:41:31;;;;;;;25.40;5.33;;;;;;;8.34;100.00;100423.52;1793017;80;21070;-61
2020/12/29 04:43:59;;;;;;;24.75;5.70;;;;;;;8.34;100.00;100417.31;1793089;80;21125;-60
2020/12/29 04:46:26;;;;;;;30.40;6.97;;;;;;;8.35;100.00;100413.72;1793214;79;21592;-61
2020/12/29 04:48:54;;;;;;;27.00;5.60;;;;;;;8.37;100.00;100417.22;1788011;80;21074;-61
2020/12/29 04:51:21;;;;;;;21.60;5.58;;;;;;;8.37;100.00;100406.53;1784493;80;21383;-61
2020/12/29 04:53:58;;;;;;;22.67;5.47;;;;;;;8.35;100.00;100400.36;1784402;80;21142;-53
2020/12/29 04:56:31;;;;;;;26.37;5.42;;;;;;;8.34;100.00;100398.14;1784450;80;21059;-53
2020/12/29 04:59:01;;;;;;;22.85;5.85;;;;;;;8.33;100.00;100393.72;1784393;80;21118;-53
2020/12/29 05:01:33;;;;;;;20.27;4.87;;;;;;;8.34;100.00;100386.59;1784472;80;21097;-53
2020/12/29 05:04:01;;;;;;;24.67;5.62;;;;;;;8.34;100.00;100389.27;1784481;80;21349;-52
2020/12/29 05:06:31;;;;;;;23.65;5.40;;;;;;;8.33;100.00;100404.88;1784416;80;21099;-54
2020/12/29 05:08:59;;;;;;;31.10;5.33;;;;;;;8.34;100.00;100406.63;1726838;80;21142;-53
2020/12/29 05:11:26;;;;;;;17.23;5.05;;;;;;;8.35;100.00;100408.38;1784376;80;21144;-53
2020/12/29 05:13:53;;;;;;;20.48;4.20;;;;;;;8.38;100.00;100424.31;1784432;80;21062;-53
2020/12/29 05:16:21;;;;;;;22.55;4.72;;;;;;;8.38;100.00;100426.98;1784425;80;21371;-53
2020/12/29 05:18:49;;;;;;;32.33;5.75;;;;;;;8.36;100.00;100432.36;1784327;80;21133;-53
2020/12/29 05:21:16;;;;;;;20.45;4.92;;;;;;;8.36;100.00;100436.84;1731760;80;21166;-53
2020/12/29 05:23:44;;;;;;;22.42;4.83;;;;;;;8.34;100.00;100435.53;1756277;80;21059;-53
2020/12/29 05:26:12;;;;;;;15.18;4.70;;;;;;;8.33;100.00;100439.61;1784364;80;21059;-53
2020/12/29 05:28:40;;;;;;;21.35;5.00;;;;;;;8.31;100.00;100436.97;1784406;80;21695;-54
2020/12/29 05:31:07;;;;;;;21.70;5.20;;;;;;;8.29;100.00;100431.69;1784374;80;21142;-54
2020/12/29 05:33:35;;;;;;;27.15;5.10;;;;;;;8.27;100.00;100425.49;1784339;80;21070;-54
2020/12/29 05:36:03;;;;;;;20.40;4.55;;;;;;;8.28;100.00;100434.40;1784411;80;21054;-54
2020/12/29 05:38:30;;;;;;;23.87;4.85;;;;;;;8.27;100.00;100427.30;1816238;79;21138;-54
2020/12/29 05:40:59;;;;;;;20.52;4.60;;;;;;;8.26;100.00;100430.91;1816524;79;21375;-54
2020/12/29 05:43:31;;;;;;;19.12;4.55;;;;;;;8.28;100.00;100437.06;1816515;78;21180;-53
2020/12/29 05:46:07;;;;;;;20.50;5.17;;;;;;;8.29;100.00;100428.13;1806387;77;21134;-55
2020/12/29 05:48:34;;;;;;;21.35;4.78;;;;;;;8.30;100.00;100429.44;1782900;80;21106;-53
2020/12/29 05:51:12;;;;;;;25.60;4.80;;;;;;;8.31;100.00;100416.94;1779998;80;21034;-53
2020/12/29 05:53:39;;;;;;;16.95;4.45;;;;;;;8.31;100.00;100413.82;1779931;80;21287;-53
2020/12/29 05:56:08;;;;;;;21.10;5.03;;;;;;;8.32;100.00;100409.34;1779945;80;21178;-54
2020/12/29 05:58:36;;;;;;;20.10;5.12;;;;;;;8.35;100.00;100415.05;1780220;80;21513;-53
2020/12/29 06:01:03;;;;;;;20.52;4.55;;;;;;;8.36;100.00;100411.46;1780028;80;21511;-53
2020/12/29 06:03:30;;;;;;;20.60;4.70;;;;;;;8.38;100.00;100405.61;1780027;80;21381;-55
2020/12/29 06:05:58;;;;;;;21.48;4.78;;;;;;;8.42;100.00;100404.58;1780047;80;21217;-54
2020/12/29 06:08:27;;;;;;;20.45;4.60;;;;;;;8.49;100.00;100404.78;1779830;80;21150;-54
2020/12/29 06:11:05;;;;;;;18.67;4.90;;;;;;;8.59;100.00;100417.42;1779906;80;21118;-53
2020/12/29 06:13:36;;;;;;;21.02;4.70;;;;;;;8.69;100.00;100414.00;1779896;80;21078;-55
2020/12/29 06:16:04;;;;;;;17.82;4.17;;;;;;;8.80;100.00;100405.17;1779997;80;21043;-53
2020/12/29 06:18:36;;;;;;;24.63;4.75;;;;;;;8.88;100.00;100402.25;1779964;80;21291;-54
2020/12/29 06:21:06;;;;;;;18.20;4.35;;;;;;;8.96;100.00;100414.03;1779785;80;21126;-54
2020/12/29 06:23:47;;;;;;;17.92;4.62;;;;;;;9.01;100.00;100420.09;1779243;80;21086;-54
2020/12/29 06:26:19;;;;;;;26.45;4.55;;;;;;;9.04;100.00;100421.32;1779896;80;21610;-54
2020/12/29 06:28:52;;;;;;;23.10;5.10;;;;;;;9.07;100.00;100429.23;1779718;80;21154;-57
2020/12/29 06:31:27;;;;;;;20.68;5.97;;;;;;;9.11;100.00;100420.17;1779798;80;21194;-54
2020/12/29 06:33:57;;;;;;;16.52;4.72;;;;;;;9.15;100.00;100413.79;1779819;80;21082;-53
2020/12/29 06:36:27;;;;;;;24.82;5.08;;;;;;;9.20;100.00;100418.12;1783916;79;21166;-55
2020/12/29 06:38:58;;;;;;;20.65;4.95;;;;;;;9.22;100.00;100420.29;1772502;78;21155;-53
2020/12/29 06:41:25;;;;;;;24.95;5.10;;;;;;;9.24;100.00;100415.75;1825168;78;21049;-53
2020/12/29 06:43:53;;;;;;;19.07;4.65;;;;;;;9.27;100.00;100419.66;1797977;78;21374;-55
2020/12/29 06:46:21;;;;;;;21.65;4.87;;;;;;;9.28;100.00;100422.30;1801770;78;21142;-53
2020/12/29 06:48:49;;;;;;;17.82;4.90;;;;;;;9.32;100.00;100420.36;1791309;79;21159;-56
2020/12/29 06:51:16;;;;;;;17.57;5.22;;;;;;;9.35;100.00;100416.23;1786580;80;21171;-53
2020/12/29 06:53:44;;;;;;;17.60;4.70;;;;;;;9.40;100.00;100414.75;1786013;80;21068;-54
2020/12/29 06:56:19;;;;;;;19.35;4.90;;;;;;;9.44;100.00;100413.70;1785985;80;21372;-54
2020/12/29 06:58:48;;;;;;;17.35;5.50;;;;;;;9.48;100.00;100410.45;1758667;80;21250;-53
2020/12/29 07:01:27;;;;;;;19.42;5.05;;;;;;;9.49;100.00;100415.73;1786050;80;21183;-54
2020/12/29 07:04:06;;;;;;;23.15;5.53;;;;;;;9.52;100.00;100416.11;1786044;80;21079;-54
2020/12/29 07:06:35;;;;;;;22.13;5.75;;;;;;;9.54;100.00;100411.56;1786141;80;21579;-54
2020/12/29 07:09:18;;;;;;;23.65;5.65;;;;;;;9.56;100.00;100421.75;1786031;80;21392;-53
2020/12/29 07:12:05;;;;;;;19.27;5.83;;;;;;;9.56;100.00;100416.40;1786196;80;21485;-54
2020/12/29 07:14:35;;;;;;;20.95;5.45;;;;;;;9.56;100.00;100417.73;1758783;80;21246;-53
2020/12/29 07:17:06;;;;;;;27.77;6.08;;;;;;;9.57;100.00;100408.78;1786078;80;21140;-55
2020/12/29 07:19:38;;;;;;;26.25;5.47;;;;;;;9.62;100.00;100413.97;1786289;80;21466;-53
2020/12/29 07:22:19;;;;;;;22.55;5.80;;;;;;;9.65;100.00;100406.72;1786219;80;21504;-54
2020/12/29 07:24:47;;;;;;;23.60;5.37;;;;;;;9.70;100.00;100402.06;1786124;80;21139;-53
2020/12/29 07:27:15;;;;;;;21.93;6.10;;;;;;;9.75;100.00;100402.75;1816224;78;21059;-52
2020/12/29 07:29:54;;;;;;;21.00;5.22;;;;;;;9.79;100.00;100405.31;1829641;78;21051;-54
2020/12/29 07:32:22;;;;;;;28.65;5.50;;;;;;;9.84;100.00;100410.91;1829717;78;21038;-54
2020/12/29 07:34:49;;;;;;;18.73;5.80;;;;;;;9.88;100.00;100422.39;1799613;78;21428;-54
2020/12/29 07:37:21;;;;;;;23.25;5.28;;;;;;;9.90;100.00;100423.20;1793764;78;21221;-53
2020/12/29 07:39:49;;;;;;;24.00;5.47;;;;;;;9.91;100.00;100415.58;1785205;78;21123;-54
2020/12/29 07:42:18;;;;;;;26.90;5.58;;;;;;;9.96;100.00;100426.98;1774672;78;21145;-55
2020/12/29 07:44:47;;;;;;;27.37;6.72;;;;;;;10.01;100.00;100422.31;1779049;78;21207;-55
2020/12/29 07:47:16;;;;;;;27.85;5.95;;;;;;;10.07;100.00;100427.05;1791677;78;21659;-54
2020/12/29 07:49:43;;;;;;;25.48;6.08;;;;;;;10.14;100.00;100442.81;1807935;77;21051;-54
2020/12/29 07:52:23;;;;;;;26.42;6.58;;;;;;;10.19;100.00;100433.27;1801993;78;21157;-54
2020/12/29 07:55:11;;;;;;;29.48;6.05;;;;;;;10.23;100.00;100428.67;1778358;80;21142;-54
2020/12/29 07:57:39;;;;;;;15.78;4.97;;;;;;;10.28;100.00;100440.97;1789873;79;21130;-54
2020/12/29 08:00:12;;;;;;;21.02;4.87;;;;;;;10.35;100.00;100421.96;1803217;78;21189;-55
2020/12/29 08:02:41;;;;;;;16.55;5.60;;;;;;;10.43;100.00;100426.58;1835117;78;21101;-54
2020/12/29 08:05:11;;;;;;;20.60;6.30;;;;;;;10.51;100.00;100439.22;1803427;78;21157;-55
2020/12/29 08:07:38;;;;;;;24.05;5.67;;;;;;;10.58;100.00;100444.73;1824994;78;21137;-53
2020/12/29 08:10:08;;;;;;;26.40;4.78;;;;;;;10.64;100.00;100453.01;1824978;78;21109;-55
2020/12/29 08:12:36;;;;;;;24.02;5.20;;;;;;;10.69;99.58;100438.05;1825007;78;21365;-54
2020/12/29 08:15:03;;;;;;;26.77;5.50;;;;;;;10.74;99.11;100456.19;1823220;78;21063;-53
2020/12/29 08:17:31;;;;;;;21.10;5.37;;;;;;;10.80;98.75;100445.66;1824942;78;21134;-54
2020/12/29 08:19:59;;;;;;;22.62;5.03;;;;;;;10.85;98.18;100462.46;1824975;78;21117;-54
2020/12/29 08:22:28;;;;;;;20.37;5.30;;;;;;;10.90;97.68;100453.75;1825072;78;21237;-54
2020/12/29 08:24:56;;;;;;;21.52;5.58;;;;;;;10.93;97.30;100461.67;1824989;78;21191;-54
2020/12/29 08:27:24;;;;;;;22.42;6.12;;;;;;;10.96;96.85;100456.17;1825081;78;21550;-54
2020/12/29 08:29:51;;;;;;;24.47;4.67;;;;;;;10.98;96.49;100451.61;1824951;78;20998;-54
2020/12/29 08:32:21;;;;;;;24.95;5.42;;;;;;;11.02;95.96;100463.09;1812882;78;21123;-54
2020/12/29 08:34:48;;;;;;;18.37;4.53;;;;;;;11.07;95.58;100453.05;1804616;77;21098;-54
2020/12/29 08:37:22;;;;;;;30.20;5.65;;;;;;;11.11;94.79;100446.61;1776202;79;21378;-53
2020/12/29 08:40:08;;;;;;;26.85;5.35;;;;;;;11.14;94.62;100443.78;1777801;80;21183;-54
2020/12/29 08:42:37;;;;;;;22.93;4.20;;;;;;;11.17;94.12;100451.73;1805997;77;21197;-54
2020/12/29 08:45:08;;;;;;;17.62;4.45;;;;;;;11.17;93.40;100454.42;1806180;78;21076;-54
2020/12/29 08:47:36;;;;;;;24.85;4.80;;;;;;;11.16;93.21;100436.58;1797082;77;21062;-52
2020/12/29 08:50:25;;;;;;;27.42;5.53;;;;;;;11.14;92.98;100422.32;1803801;78;21333;-54
2020/12/29 08:53:05;;;;;;;15.23;4.33;;;;;;;11.12;92.82;100428.71;1762280;78;21070;-54
2020/12/29 08:55:36;;;;;;;16.25;4.65;;;;;;;11.07;92.70;100412.80;1763193;80;21519;-55
2020/12/29 08:58:03;;;;;;;17.85;4.12;;;;;;;11.04;92.71;100420.98;1769153;80;21074;-54
2020/12/29 09:00:31;;;;;;;22.13;5.05;;;;;;;11.03;92.85;100416.55;1769923;80;21102;-54
2020/12/29 09:02:58;;;;;;;19.25;5.15;;;;;;;11.03;92.97;100401.80;1771632;78;21373;-54
2020/12/29 09:05:28;;;;;;;22.00;4.62;;;;;;;11.03;93.12;100409.36;1775521;80;21171;-55
2020/12/29 09:07:56;;;;;;;20.15;4.65;;;;;;;11.05;92.95;100394.56;1773547;78;21491;-54
2020/12/29 09:10:23;;;;;;;24.82;4.78;;;;;;;11.05;92.76;100398.58;1776443;80;21121;-53
2020/12/29 09:12:51;;;;;;;23.15;5.17;;;;;;;11.08;92.56;100406.50;1759125;79;21138;-54
2020/12/29 09:15:27;;;;;;;30.68;5.08;;;;;;;11.08;92.32;100392.23;1772385;79;21344;-54
2020/12/29 09:17:57;;;;;;;22.73;4.92;;;;;;;11.07;92.10;100407.92;1770706;78;21198;-53
2020/12/29 09:20:29;;;;;;;23.12;5.05;;;;;;;11.05;91.98;100399.92;1755644;78;21083;-55
2020/12/29 09:23:12;;;;;;;24.05;4.53;;;;;;;11.02;91.65;100400.06;1755494;81;21180;-54
2020/12/29 09:25:44;;;;;;;21.23;5.10;;;;;;;10.96;91.60;100399.84;1755508;81;21154;-55
2020/12/29 09:28:25;;;;;;;26.07;4.70;;;;;;;10.93;91.82;100397.75;1755498;81;21549;-53
2020/12/29 09:31:08;;;;;;;19.15;4.65;;;;;;;10.92;92.11;100390.19;1728067;81;21094;-54
2020/12/29 09:33:38;;;;;;;18.85;3.95;;;;;;;10.94;92.44;100384.73;1755553;81;21174;-53
2020/12/29 09:36:07;;;;;;;21.55;4.45;;;;;;;10.95;92.43;100386.52;1755500;81;21118;-54
2020/12/29 09:38:35;;;;;;;25.60;4.37;;;;;;;10.94;92.44;100395.02;1755500;81;21054;-53
2020/12/29 09:41:04;;;;;;;20.92;4.30;;;;;;;10.91;92.37;100394.27;1755520;81;21392;-54
2020/12/29 09:43:33;;;;;;;28.80;4.33;;;;;;;10.88;92.41;100392.11;1755392;81;21519;-53
2020/12/29 09:46:01;;;;;;;20.37;4.33;;;;;;;10.87;92.46;100392.20;1755492;81;21137;-54
2020/12/29 09:48:28;;;;;;;21.35;5.15;;;;;;;10.85;92.40;100392.25;1755346;81;21138;-54
2020/12/29 09:50:56;;;;;;;25.80;4.50;;;;;;;10.80;92.33;100391.58;1758551;78;21097;-53
2020/12/29 09:53:24;;;;;;;22.35;5.00;;;;;;;10.77;92.32;100386.80;1765938;81;21380;-54
2020/12/29 09:55:51;;;;;;;21.68;4.75;;;;;;;10.72;92.58;100382.95;1765922;81;21133;-53
2020/12/29 09:58:19;;;;;;;21.65;4.90;;;;;;;10.70;92.81;100392.42;1766130;81;21137;-53
2020/12/29 10:00:47;;;;;;;27.37;5.28;;;;;;;10.70;93.06;100403.60;1766015;81;21055;-53
2020/12/29 10:03:15;;;;;;;26.07;4.67;;;;;;;10.68;93.16;100398.32;1766005;81;21069;-55
2020/12/29 10:05:46;;;;;;;24.80;4.45;;;;;;;10.67;93.21;100395.69;1766107;81;21385;-55
2020/12/29 10:08:13;;;;;;;29.77;4.83;;;;;;;10.66;93.19;100406.89;1766039;81;21078;-53
2020/12/29 10:10:41;;;;;;;37.40;6.08;;;;;;;10.63;93.29;100411.05;1766081;81;21209;-53
2020/12/29 10:13:08;;;;;;;27.80;6.50;;;;;;;10.60;93.34;100411.14;1766093;81;21207;-53
2020/12/29 10:15:36;;;;;;;28.52;5.10;;;;;;;10.56;93.37;100414.44;1766106;81;21193;-54
2020/12/29 10:18:03;;;;;;;25.75;4.67;;;;;;;10.50;93.54;100417.38;1766045;81;21196;-53
2020/12/29 10:20:31;;;;;;;32.10;4.80;;;;;;;10.46;93.91;100413.05;1765941;81;21137;-54
2020/12/29 10:22:59;;;;;;;26.82;5.45;;;;;;;10.41;94.23;100408.34;1765928;81;21124;-54
2020/12/29 10:25:27;;;;;;;30.08;4.85;;;;;;;10.37;94.69;100402.67;1738525;81;21124;-53
2020/12/29 10:27:54;;;;;;;19.67;4.47;;;;;;;10.36;95.14;100405.80;1766117;79;21106;-54
2020/12/29 10:30:21;;;;;;;22.52;5.12;;;;;;;10.38;95.44;100396.37;1785446;78;21158;-53
2020/12/29 10:32:51;;;;;;;20.02;4.67;;;;;;;10.42;95.69;100398.03;1777951;79;21137;-54
2020/12/29 10:35:19;;;;;;;20.95;4.40;;;;;;;10.46;95.84;100397.85;1766022;81;21019;-53
2020/12/29 10:37:47;;;;;;;21.55;5.05;;;;;;;10.50;95.93;100392.36;1776941;79;21082;-53
2020/12/29 10:40:15;;;;;;;19.60;4.45;;;;;;;10.54;95.96;100393.53;1766061;81;21066;-53
2020/12/29 10:42:43;;;;;;;28.35;6.00;;;;;;;10.59;95.89;100403.59;1765917;81;21189;-54
2020/12/29 10:45:11;;;;;;;23.15;4.78;;;;;;;10.65;95.79;100402.92;1772899;79;21462;-53
2020/12/29 10:47:38;;;;;;;27.17;5.10;;;;;;;10.70;95.61;100410.30;1765989;81;21173;-53
2020/12/29 10:50:07;;;;;;;28.38;4.37;;;;;;;10.74;95.40;100415.97;1765861;81;21062;-53
2020/12/29 10:52:35;;;;;;;19.50;4.67;;;;;;;10.79;95.30;100411.28;1765966;81;21485;-53
2020/12/29 10:55:02;;;;;;;22.22;5.05;;;;;;;10.83;94.93;100418.26;1766013;81;21285;-53
2020/12/29 10:57:32;;;;;;;23.47;4.47;;;;;;;10.88;94.80;100428.32;1766266;78;21137;-54
2020/12/29 11:00:00;;;;;;;23.07;4.37;;;;;;;10.95;94.60;100429.43;1766072;81;21169;-54
2020/12/29 11:02:27;;;;;;;27.05;4.92;;;;;;;11.02;94.41;100421.52;1765901;81;21153;-54
2020/12/29 11:04:55;;;;;;;24.35;3.80;;;;;;;11.09;94.08;100435.06;1765944;81;21058;-54
2020/12/29 11:07:22;;;;;;;23.00;4.92;;;;;;;11.14;93.79;100443.78;1766104;79;21388;-53
2020/12/29 11:09:51;;;;;;;26.73;4.10;;;;;;;11.17;93.40;100446.37;1765734;81;21204;-53
2020/12/29 11:12:19;;;;;;;27.77;4.90;;;;;;;11.21;93.29;100456.97;1765959;81;21180;-54
2020/12/29 11:14:47;;;;;;;20.50;4.42;;;;;;;11.24;93.18;100454.15;1765936;81;21117;-54
2020/12/29 11:17:14;;;;;;;18.25;4.78;;;;;;;11.28;92.91;100474.55;1766016;81;21133;-54
2020/12/29 11:19:45;;;;;;;22.20;4.08;;;;;;;11.28;92.59;100478.56;1765885;81;21090;-54
2020/12/29 11:22:13;;;;;;;21.33;4.53;;;;;;;11.27;92.43;100473.69;1765909;81;21076;-53
2020/12/29 11:24:40;;;;;;;20.57;3.98;;;;;;;11.26;92.33;100473.73;1766007;81;21133;-54
2020/12/29 11:27:08;;;;;;;19.70;3.95;;;;;;;11.23;92.23;100469.84;1765988;81;21149;-54